createdAt,value
2022-11-18T00:00:56.147Z,9.60
2022-11-18T00:03:23.075Z,9.70
2022-11-18T00:05:57.302Z,9.70
2022-11-18T00:08:25.388Z,9.70
2022-11-18T00:10:52.824Z,9.70
2022-11-18T00:16:11.583Z,9.70
2022-11-18T00:18:39.250Z,9.70
2022-11-18T00:21:10.117Z,9.70
2022-11-18T00:23:36.877Z,9.70
2022-11-18T00:26:14.025Z,9.60
2022-11-18T00:28:42.040Z,9.70
2022-11-18T00:31:13.588Z,9.70
2022-11-18T00:33:40.812Z,9.60
2022-11-18T00:36:10.637Z,9.60
2022-11-18T00:38:38.205Z,9.60
2022-11-18T00:41:07.819Z,9.60
2022-11-18T00:43:35.344Z,9.60
2022-11-18T00:48:29.421Z,9.50
2022-11-18T00:50:58.192Z,9.50
2022-11-18T00:53:26.787Z,9.50
2022-11-18T00:55:54.271Z,9.50
2022-11-18T01:00:51.858Z,9.50
2022-11-18T01:03:19.973Z,9.50
2022-11-18T01:08:14.778Z,9.50
2022-11-18T01:10:42.039Z,9.40
2022-11-18T01:13:19.758Z,9.50
2022-11-18T01:15:54.116Z,9.50
2022-11-18T01:18:24.425Z,9.40
2022-11-18T01:23:19.782Z,9.50
2022-11-18T01:25:48.789Z,9.40
2022-11-18T01:28:21.980Z,9.40
2022-11-18T01:33:17.442Z,9.40
2022-11-18T01:35:44.889Z,9.40
2022-11-18T01:38:13.937Z,9.50
2022-11-18T01:40:41.741Z,9.40
2022-11-18T01:43:17.961Z,9.40
2022-11-18T01:45:47.249Z,9.40
2022-11-18T01:48:26.354Z,9.40
2022-11-18T01:51:02.521Z,9.40
2022-11-18T01:53:42.914Z,9.40
2022-11-18T01:56:16.976Z,9.40
2022-11-18T01:58:56.963Z,9.40
2022-11-18T02:03:52.898Z,9.40
2022-11-18T02:06:19.748Z,9.40
2022-11-18T02:08:48.395Z,9.40
2022-11-18T02:11:34.213Z,9.40
2022-11-18T02:14:03.996Z,9.40
2022-11-18T02:17:04.752Z,9.30
2022-11-18T02:19:47.495Z,9.30
2022-11-18T02:22:29.162Z,9.30
2022-11-18T02:28:00.793Z,9.40
2022-11-18T02:30:32.894Z,9.40
2022-11-18T02:33:08.102Z,9.30
2022-11-18T02:35:52.415Z,9.30
2022-11-18T02:40:52.398Z,9.30
2022-11-18T02:43:27.931Z,9.30
2022-11-18T02:46:00.171Z,9.20
2022-11-18T02:48:30.721Z,9.20
2022-11-18T02:51:00.409Z,9.20
2022-11-18T02:53:29.587Z,9.30
2022-11-18T02:58:25.834Z,9.30
2022-11-18T03:00:57.846Z,9.20
2022-11-18T03:03:36.176Z,9.20
2022-11-18T03:06:12.415Z,9.20
2022-11-18T03:08:50.478Z,9.20
2022-11-18T03:11:26.795Z,9.10
2022-11-18T03:14:08.223Z,9.00
2022-11-18T03:17:03.832Z,9.00
2022-11-18T03:20:05.831Z,9.00
2022-11-18T03:22:54.644Z,9.00
2022-11-18T03:25:51.300Z,9.00
2022-11-18T03:28:22.892Z,8.90
2022-11-18T03:31:02.864Z,8.90
2022-11-18T03:33:35.754Z,8.90
2022-11-18T03:36:06.858Z,8.90
2022-11-18T03:38:42.438Z,8.90
2022-11-18T03:41:11.771Z,8.90
2022-11-18T03:43:44.973Z,8.90
2022-11-18T03:46:23.150Z,8.90
2022-11-18T03:48:54.261Z,8.90
2022-11-18T03:51:26.398Z,9.00
2022-11-18T03:54:02.575Z,8.90
2022-11-18T03:56:37.853Z,8.90
2022-11-18T03:59:20.572Z,9.00
2022-11-18T04:01:53.456Z,9.00
2022-11-18T04:04:21.773Z,9.00
2022-11-18T04:07:05.407Z,9.00
2022-11-18T04:09:42.787Z,9.00
2022-11-18T04:12:14.155Z,9.00
2022-11-18T04:14:43.920Z,9.00
2022-11-18T04:17:17.594Z,9.00
2022-11-18T04:19:44.291Z,9.00
2022-11-18T04:22:11.292Z,9.00
2022-11-18T04:24:38.316Z,9.00
2022-11-18T04:27:05.774Z,9.00
2022-11-18T04:29:33.679Z,9.00
2022-11-18T04:32:01.612Z,9.00
2022-11-18T04:34:28.762Z,8.90
2022-11-18T04:39:23.072Z,8.90
2022-11-18T04:41:55.656Z,8.90
2022-11-18T04:44:28.225Z,8.90
2022-11-18T04:46:56.768Z,8.90
2022-11-18T04:49:24.441Z,9.00
2022-11-18T04:51:52.134Z,9.00
2022-11-18T04:54:19.867Z,9.10
2022-11-18T04:59:19.659Z,9.10
2022-11-18T05:04:16.701Z,9.10
2022-11-18T05:06:43.911Z,9.10
2022-11-18T05:09:11.063Z,9.10
2022-11-18T05:11:56.440Z,9.10
2022-11-18T05:14:26.879Z,9.10
2022-11-18T05:16:54.521Z,9.10
2022-11-18T05:19:21.237Z,9.10
2022-11-18T05:21:48.128Z,9.10
2022-11-18T05:24:15.164Z,9.10
2022-11-18T05:39:01.392Z,9.10
2022-11-18T05:41:46.790Z,9.00
2022-11-18T05:44:13.472Z,9.00
2022-11-18T05:46:40.172Z,9.00
2022-11-18T05:51:35.300Z,8.90
2022-11-18T05:54:06.446Z,8.90
2022-11-18T05:56:39.051Z,8.90
2022-11-18T05:59:06.818Z,8.90
2022-11-18T06:01:51.189Z,8.90
2022-11-18T06:04:24.036Z,8.90
2022-11-18T06:06:54.643Z,8.90
2022-11-18T06:09:25.753Z,8.90
2022-11-18T06:11:56.822Z,8.90
2022-11-18T06:14:30.377Z,8.90
2022-11-18T06:17:02.051Z,8.90
2022-11-18T06:19:29.195Z,8.90
2022-11-18T06:24:23.842Z,8.90
2022-11-18T06:29:26.018Z,8.90
2022-11-18T06:39:15.949Z,9.00
2022-11-18T06:44:11.812Z,9.00
2022-11-18T06:46:56.596Z,9.10
2022-11-18T06:49:28.050Z,9.10
2022-11-18T06:51:55.052Z,9.10
2022-11-18T06:54:22.246Z,9.10
2022-11-18T06:56:48.990Z,9.10
2022-11-18T06:59:21.547Z,9.10
2022-11-18T07:01:48.231Z,9.20
2022-11-18T07:04:14.921Z,9.20
2022-11-18T07:09:08.901Z,9.30
2022-11-18T07:14:04.812Z,9.30
2022-11-18T07:16:31.526Z,9.40
2022-11-18T07:21:29.509Z,9.30
2022-11-18T07:23:56.898Z,9.30
2022-11-18T07:26:23.909Z,9.30
2022-11-18T07:31:20.448Z,9.30
2022-11-18T07:33:48.141Z,9.30
2022-11-18T07:36:20.449Z,9.30
2022-11-18T07:38:47.926Z,9.30
2022-11-18T07:41:20.659Z,9.30
2022-11-18T07:46:21.943Z,9.30
2022-11-18T07:48:50.653Z,9.40
2022-11-18T07:51:20.073Z,9.50
2022-11-18T07:53:47.172Z,9.60
2022-11-18T07:56:14.736Z,9.70
2022-11-18T07:58:42.465Z,9.80
2022-11-18T08:01:14.532Z,9.80
2022-11-18T08:03:42.091Z,9.90
2022-11-18T08:06:11.212Z,9.90
2022-11-18T08:11:08.097Z,9.90
2022-11-18T08:13:35.769Z,10.00
2022-11-18T08:16:03.917Z,10.00
2022-11-18T08:18:32.471Z,10.10
2022-11-18T08:21:05.574Z,10.10
2022-11-18T08:23:35.135Z,10.10
2022-11-18T08:26:06.777Z,10.20
2022-11-18T08:28:33.802Z,10.30
2022-11-18T08:31:00.624Z,10.40
2022-11-18T08:40:48.640Z,10.40
2022-11-18T08:45:42.478Z,10.50
2022-11-18T08:48:09.190Z,10.40
2022-11-18T08:55:30.317Z,10.50
2022-11-18T08:57:56.976Z,10.50
2022-11-18T09:00:23.798Z,10.50
2022-11-18T09:02:50.654Z,10.50
2022-11-18T09:05:17.496Z,10.50
2022-11-18T09:07:44.189Z,10.50
2022-11-18T09:10:11.005Z,10.50
2022-11-18T09:12:37.828Z,10.50
2022-11-18T09:15:13.958Z,10.50
2022-11-18T09:17:41.437Z,10.50
2022-11-18T09:20:08.767Z,10.50
2022-11-18T09:22:37.772Z,10.50
2022-11-18T09:27:31.691Z,10.40
2022-11-18T09:29:58.393Z,10.40
2022-11-18T09:34:52.188Z,10.40
2022-11-18T09:37:19.095Z,10.50
2022-11-18T09:42:26.468Z,10.60
2022-11-18T09:45:14.543Z,10.60
2022-11-18T09:47:41.401Z,10.70
2022-11-18T09:53:23.531Z,10.80
2022-11-18T09:55:52.214Z,10.90
2022-11-18T09:58:29.024Z,11.00
2022-11-18T10:06:04.506Z,11.10
2022-11-18T10:08:55.702Z,11.20
2022-11-18T10:11:26.591Z,11.20
2022-11-18T10:14:14.143Z,11.40
2022-11-18T10:16:50.868Z,11.50
2022-11-18T10:19:22.360Z,11.50
2022-11-18T10:22:19.503Z,11.70
2022-11-18T10:24:53.572Z,11.80
2022-11-18T10:27:21.689Z,12.00
2022-11-18T10:29:53.250Z,12.20
2022-11-18T10:32:20.220Z,12.30
2022-11-18T10:34:53.384Z,12.30
2022-11-18T10:37:52.508Z,12.40
2022-11-18T10:42:47.891Z,12.60
2022-11-18T10:45:29.026Z,12.70
2022-11-18T10:48:10.011Z,12.90
2022-11-18T10:50:43.893Z,12.90
2022-11-18T10:53:25.792Z,13.00
2022-11-18T10:56:14.031Z,13.00
2022-11-18T10:58:47.521Z,12.90
2022-11-18T11:03:43.299Z,12.80
2022-11-18T11:06:33.996Z,12.80
2022-11-18T11:09:04.285Z,12.90
2022-11-18T11:11:32.617Z,12.80
2022-11-18T11:14:17.378Z,12.90
2022-11-18T11:16:53.866Z,13.10
2022-11-18T11:19:25.297Z,13.40
2022-11-18T11:21:52.138Z,13.20
2022-11-18T11:24:20.101Z,13.30
2022-11-18T11:29:54.609Z,13.50
2022-11-18T11:32:39.283Z,13.60
2022-11-18T11:35:43.480Z,13.90
2022-11-18T11:38:25.881Z,14.00
2022-11-18T11:41:22.316Z,14.10
2022-11-18T11:44:09.289Z,13.90
2022-11-18T11:47:32.485Z,13.70
2022-11-18T11:51:00.070Z,13.30
2022-11-18T11:53:49.545Z,12.80
2022-11-18T11:56:49.943Z,12.60
2022-11-18T12:01:49.919Z,12.30
2022-11-18T12:04:46.707Z,12.30
2022-11-18T12:07:26.726Z,12.30
2022-11-18T12:10:14.827Z,12.20
2022-11-18T12:13:02.125Z,12.20
2022-11-18T12:15:46.882Z,12.20
2022-11-18T12:18:32.805Z,12.20
2022-11-18T12:20:59.470Z,12.20
2022-11-18T12:23:28.862Z,12.20
2022-11-18T12:25:57.161Z,12.30
2022-11-18T12:28:41.890Z,12.40
2022-11-18T12:31:20.678Z,12.40
2022-11-18T12:34:02.447Z,12.60
2022-11-18T12:36:29.074Z,12.60
2022-11-18T12:38:56.921Z,12.70
2022-11-18T12:42:00.088Z,12.60
2022-11-18T12:44:29.056Z,12.60
2022-11-18T12:47:00.524Z,12.60
2022-11-18T12:49:47.551Z,12.60
2022-11-18T12:52:29.569Z,12.60
2022-11-18T12:54:59.768Z,12.60
2022-11-18T12:57:34.735Z,12.70
2022-11-18T13:00:24.869Z,12.80
2022-11-18T13:02:56.969Z,12.80
2022-11-18T13:05:25.251Z,12.80
2022-11-18T13:08:14.724Z,12.80
2022-11-18T13:10:50.541Z,12.90
2022-11-18T13:13:29.062Z,12.80
2022-11-18T13:16:23.689Z,12.80
2022-11-18T13:18:54.289Z,12.70
2022-11-18T13:21:45.725Z,12.80
2022-11-18T13:24:18.231Z,12.80
2022-11-18T13:26:46.538Z,12.80
2022-11-18T13:29:22.450Z,12.70
2022-11-18T13:32:04.804Z,12.70
2022-11-18T13:34:37.878Z,12.70
2022-11-18T13:37:19.930Z,12.60
2022-11-18T13:39:49.262Z,12.50
2022-11-18T13:42:20.780Z,12.40
2022-11-18T13:44:58.779Z,12.30
2022-11-18T13:47:40.037Z,12.20
2022-11-18T13:50:31.098Z,12.20
2022-11-18T13:53:20.117Z,12.20
2022-11-18T13:56:16.248Z,12.30
2022-11-18T14:01:38.442Z,12.40
2022-11-18T14:04:06.778Z,12.40
2022-11-18T14:06:36.038Z,12.50
2022-11-18T14:09:25.958Z,12.50
2022-11-18T14:12:00.345Z,12.60
2022-11-18T14:14:35.735Z,12.60
2022-11-18T14:17:18.356Z,12.60
2022-11-18T14:19:46.545Z,12.60
2022-11-18T14:22:27.688Z,12.50
2022-11-18T14:25:02.544Z,12.50
2022-11-18T14:27:29.256Z,12.60
2022-11-18T14:29:56.194Z,12.50
2022-11-18T14:35:02.490Z,12.50
2022-11-18T14:37:30.350Z,12.40
2022-11-18T14:39:58.042Z,12.30
2022-11-18T14:42:25.216Z,12.30
2022-11-18T14:44:52.002Z,12.20
2022-11-18T14:47:26.014Z,12.10
2022-11-18T14:57:16.913Z,11.60
2022-11-18T14:59:43.862Z,11.50
2022-11-18T15:02:16.574Z,11.40
2022-11-18T15:04:43.643Z,11.30
2022-11-18T15:07:18.530Z,11.30
2022-11-18T15:09:49.757Z,11.20
2022-11-18T15:12:17.632Z,11.10
2022-11-18T15:14:44.409Z,11.00
2022-11-18T15:17:12.568Z,10.90
2022-11-18T15:19:40.957Z,10.80
2022-11-18T15:22:08.057Z,10.90
2022-11-18T15:24:34.844Z,10.80
2022-11-18T15:27:05.261Z,10.80
2022-11-18T15:29:32.224Z,10.70
2022-11-18T15:39:21.497Z,10.40
2022-11-18T15:44:16.235Z,10.20
2022-11-18T15:46:45.389Z,10.20
2022-11-18T15:49:14.667Z,10.10
2022-11-18T15:51:41.586Z,10.00
2022-11-18T15:56:35.964Z,9.80
2022-11-18T15:59:09.211Z,9.90
2022-11-18T16:01:41.390Z,9.90
2022-11-18T16:04:10.134Z,9.80
2022-11-18T16:06:37.376Z,9.80
2022-11-18T16:09:06.132Z,9.70
2022-11-18T16:11:51.940Z,9.70
2022-11-18T16:14:21.090Z,9.60
2022-11-18T16:16:50.351Z,9.50
2022-11-18T16:19:19.928Z,9.50
2022-11-18T16:21:49.319Z,9.50
2022-11-18T16:24:22.137Z,9.40
2022-11-18T16:26:49.748Z,9.40
2022-11-18T16:29:17.980Z,9.50
2022-11-18T16:31:50.621Z,9.50
2022-11-18T16:34:23.021Z,9.50
2022-11-18T16:36:52.169Z,9.50
2022-11-18T16:39:29.052Z,9.50
2022-11-18T16:42:06.455Z,9.60
2022-11-18T16:47:02.007Z,9.50
2022-11-18T16:51:56.963Z,9.60
2022-11-18T16:54:31.593Z,9.50
2022-11-18T16:56:59.713Z,9.50
2022-11-18T16:59:28.858Z,9.50
2022-11-18T17:01:57.226Z,9.50
2022-11-18T17:04:25.573Z,9.50
2022-11-18T17:06:53.333Z,9.50
2022-11-18T17:09:22.857Z,9.60
2022-11-18T17:11:50.894Z,9.60
2022-11-18T17:16:46.135Z,9.50
2022-11-18T17:19:18.729Z,9.50
2022-11-18T17:21:46.097Z,9.60
2022-11-18T17:24:19.353Z,9.60
2022-11-18T17:26:47.409Z,9.70
2022-11-18T17:29:14.965Z,9.80
2022-11-18T17:31:42.498Z,9.80
2022-11-18T17:34:13.855Z,9.90
2022-11-18T17:36:41.361Z,9.80
2022-11-18T17:39:10.768Z,9.90
2022-11-18T17:41:55.902Z,9.90
2022-11-18T17:46:50.000Z,10.00
2022-11-18T17:49:18.341Z,10.00
2022-11-18T17:51:48.469Z,10.00
2022-11-18T18:04:04.651Z,10.30
2022-11-18T18:08:58.924Z,10.40
2022-11-18T18:11:26.767Z,10.30
2022-11-18T18:16:48.407Z,10.30
2022-11-18T18:19:18.092Z,10.20
2022-11-18T18:21:45.624Z,10.10
2022-11-18T18:24:15.197Z,10.00
2022-11-18T18:29:09.189Z,9.90
2022-11-18T18:31:36.609Z,9.80
2022-11-18T18:34:04.303Z,9.70
2022-11-18T18:38:59.040Z,9.60
2022-11-18T18:46:28.626Z,9.60
2022-11-18T18:49:09.873Z,9.60
2022-11-18T18:51:37.937Z,9.60
2022-11-18T18:56:32.919Z,9.70
2022-11-18T18:59:00.366Z,9.70
2022-11-18T19:01:28.262Z,9.80
2022-11-18T19:04:02.638Z,9.80
2022-11-18T19:06:58.460Z,9.70
2022-11-18T19:12:08.087Z,9.80
2022-11-18T19:19:57.082Z,9.70
2022-11-18T19:22:24.419Z,9.60
2022-11-18T19:24:51.523Z,9.60
2022-11-18T19:27:19.188Z,9.60
2022-11-18T19:29:46.371Z,9.60
2022-11-18T19:32:13.412Z,9.60
2022-11-18T19:34:40.132Z,9.60
2022-11-18T19:42:01.882Z,9.60
2022-11-18T19:44:28.642Z,9.50
2022-11-18T19:51:50.056Z,9.50
2022-11-18T19:54:16.725Z,9.50
2022-11-18T19:59:12.572Z,9.40
2022-11-18T20:06:35.891Z,8.60
2022-11-18T20:09:06.030Z,9.30
2022-11-18T20:18:56.811Z,9.30
2022-11-18T20:21:24.883Z,9.20
2022-11-18T20:23:55.072Z,9.20
2022-11-18T20:26:23.611Z,9.20
2022-11-18T20:31:25.164Z,9.20
2022-11-18T20:33:53.376Z,9.10
2022-11-18T20:36:22.687Z,9.10
2022-11-18T20:38:52.171Z,9.10
2022-11-18T20:41:20.023Z,9.10
2022-11-18T20:43:48.112Z,9.60
2022-11-18T20:46:20.325Z,9.10
2022-11-18T20:48:48.028Z,9.10
2022-11-18T20:51:17.158Z,9.10
2022-11-18T20:56:14.622Z,9.10
2022-11-18T21:01:12.973Z,9.10
2022-11-18T21:03:40.956Z,9.10
2022-11-18T21:06:13.952Z,9.10
2022-11-18T21:08:42.549Z,9.10
2022-11-18T21:11:11.498Z,9.00
2022-11-18T21:13:57.720Z,9.10
2022-11-18T21:16:25.362Z,9.10
2022-11-18T21:18:52.234Z,9.10
2022-11-18T21:21:37.315Z,9.00
2022-11-18T21:24:04.318Z,9.00
2022-11-18T21:26:32.893Z,9.00
2022-11-18T21:29:02.114Z,9.00
2022-11-18T21:31:29.720Z,9.00
2022-11-18T21:33:57.057Z,9.00
2022-11-18T21:36:25.832Z,9.00
2022-11-18T21:46:35.250Z,9.00
2022-11-18T21:51:31.488Z,8.90
2022-11-18T21:53:59.139Z,8.90
2022-11-18T21:56:33.381Z,8.90
2022-11-18T21:59:01.602Z,8.90
2022-11-18T22:01:30.529Z,6.40
2022-11-18T22:03:59.442Z,9.10
2022-11-18T22:06:29.718Z,8.90
2022-11-18T22:08:56.591Z,8.90
2022-11-18T22:13:52.018Z,8.90
2022-11-18T22:16:22.001Z,9.00
2022-11-18T22:18:55.976Z,8.90
2022-11-18T22:23:50.284Z,8.90
2022-11-18T22:26:19.554Z,8.90
2022-11-18T22:28:47.653Z,8.80
2022-11-18T22:31:16.757Z,8.90
2022-11-18T22:36:15.222Z,8.90
2022-11-18T22:38:43.391Z,8.90
2022-11-18T22:41:30.838Z,8.90
2022-11-18T22:51:26.009Z,8.90
2022-11-18T22:56:39.837Z,8.90
2022-11-18T22:59:06.763Z,8.90
2022-11-18T23:01:33.518Z,9.00
2022-11-18T23:04:00.257Z,9.00
2022-11-18T23:14:10.810Z,8.90
2022-11-18T23:16:42.576Z,8.90
2022-11-18T23:19:14.640Z,8.90
2022-11-18T23:21:42.318Z,8.90
2022-11-18T23:24:17.316Z,8.90
2022-11-18T23:29:12.479Z,8.90
2022-11-18T23:31:44.048Z,8.90
2022-11-18T23:34:12.434Z,8.80
2022-11-18T23:36:40.043Z,8.90
2022-11-18T23:39:07.528Z,8.90
2022-11-18T23:41:34.373Z,8.80
2022-11-18T23:46:28.381Z,8.90
2022-11-18T23:51:24.058Z,8.90
2022-11-18T23:53:56.447Z,8.90
2022-11-18T23:56:25.741Z,8.90
2022-11-18T23:58:55.051Z,8.80
